createdAt,value
2019-04-06T00:00:13.922Z,24.57
2019-04-06T00:02:25.059Z,30.47
2019-04-06T00:04:32.466Z,22.97
2019-04-06T00:06:39.995Z,25.30
2019-04-06T00:08:47.316Z,26.40
2019-04-06T00:10:55.319Z,26.33
2019-04-06T00:13:02.795Z,26.87
2019-04-06T00:15:10.522Z,26.53
2019-04-06T00:17:17.962Z,26.40
2019-04-06T00:19:25.436Z,27.53
2019-04-06T00:21:32.877Z,27.77
2019-04-06T00:23:40.341Z,30.17
2019-04-06T00:25:47.782Z,25.27
2019-04-06T00:27:55.212Z,24.80
2019-04-06T00:30:02.553Z,24.37
2019-04-06T00:32:14.600Z,26.17
2019-04-06T00:34:22.001Z,26.67
2019-04-06T00:36:29.424Z,27.80
2019-04-06T00:38:36.909Z,31.33
2019-04-06T00:40:44.348Z,27.43
2019-04-06T00:42:51.782Z,31.10
2019-04-06T00:44:59.147Z,26.47
2019-04-06T00:47:06.559Z,23.83
2019-04-06T00:49:13.938Z,26.23
2019-04-06T00:51:21.296Z,22.87
2019-04-06T00:53:28.734Z,24.43
2019-04-06T00:55:36.093Z,24.87
2019-04-06T00:57:43.573Z,24.00
2019-04-06T00:59:50.993Z,27.37
2019-04-06T01:01:58.467Z,30.17
2019-04-06T01:04:05.934Z,25.53
2019-04-06T01:06:13.329Z,26.93
2019-04-06T01:08:20.725Z,24.77
2019-04-06T01:10:28.206Z,26.00
2019-04-06T01:12:35.577Z,22.73
2019-04-06T01:14:43.018Z,25.53
2019-04-06T01:16:50.420Z,24.67
2019-04-06T01:18:57.887Z,24.30
2019-04-06T01:21:05.247Z,34.97
2019-04-06T01:23:12.757Z,23.77
2019-04-06T01:25:20.181Z,26.83
2019-04-06T01:27:27.490Z,26.17
2019-04-06T01:29:34.863Z,23.87
2019-04-06T01:31:42.226Z,29.43
2019-04-06T01:33:49.613Z,26.93
2019-04-06T01:35:56.958Z,26.80
2019-04-06T01:38:04.309Z,24.77
2019-04-06T01:40:11.826Z,27.60
2019-04-06T01:42:19.228Z,26.87
2019-04-06T01:44:26.645Z,27.73
2019-04-06T01:46:33.980Z,24.47
2019-04-06T01:48:41.400Z,24.90
2019-04-06T01:50:48.716Z,27.53
2019-04-06T01:52:56.107Z,24.40
2019-04-06T01:55:03.503Z,28.83
2019-04-06T01:57:10.953Z,25.13
2019-04-06T01:59:18.435Z,26.53
2019-04-06T02:01:39.934Z,26.07
2019-04-06T02:03:47.311Z,25.43
2019-04-06T02:05:54.927Z,24.77
2019-04-06T02:08:02.542Z,24.40
2019-04-06T02:10:10.277Z,24.70
2019-04-06T02:12:17.624Z,31.47
2019-04-06T02:14:25.150Z,29.47
2019-04-06T02:16:32.546Z,30.53
2019-04-06T02:18:40.027Z,26.00
2019-04-06T02:20:47.415Z,24.73
2019-04-06T02:22:54.825Z,27.03
2019-04-06T02:25:02.199Z,28.70
2019-04-06T02:27:09.532Z,26.87
2019-04-06T02:29:17.010Z,25.50
2019-04-06T02:31:42.010Z,25.17
2019-04-06T02:34:07.914Z,26.00
2019-04-06T02:36:43.278Z,26.50
2019-04-06T02:39:24.870Z,27.47
2019-04-06T02:42:03.373Z,29.20
2019-04-06T02:44:10.800Z,23.83
2019-04-06T02:46:18.146Z,22.63
2019-04-06T02:48:25.520Z,27.70
2019-04-06T02:50:32.889Z,25.40
2019-04-06T02:52:40.256Z,24.80
2019-04-06T02:54:47.615Z,29.33
2019-04-06T02:56:55.083Z,26.07
2019-04-06T02:59:02.458Z,23.47
2019-04-06T03:01:09.893Z,25.87
2019-04-06T03:03:17.463Z,22.07
2019-04-06T03:05:24.807Z,25.07
2019-04-06T03:07:32.417Z,24.93
2019-04-06T03:09:39.758Z,22.17
2019-04-06T03:11:47.189Z,25.83
2019-04-06T03:13:54.572Z,25.17
2019-04-06T03:16:02.041Z,24.37
2019-04-06T03:18:09.770Z,24.07
2019-04-06T03:20:17.431Z,23.70
2019-04-06T03:22:25.039Z,25.77
2019-04-06T03:24:32.439Z,23.87
2019-04-06T03:26:39.981Z,23.70
2019-04-06T03:28:47.591Z,27.10
2019-04-06T03:30:55.992Z,25.20
2019-04-06T03:33:03.735Z,28.97
2019-04-06T03:35:11.650Z,23.10
2019-04-06T03:37:20.014Z,28.93
2019-04-06T03:39:27.367Z,26.77
2019-04-06T03:41:34.713Z,26.67
2019-04-06T03:43:42.158Z,27.73
2019-04-06T03:45:49.556Z,27.27
2019-04-06T03:47:57.006Z,24.27
2019-04-06T03:50:04.745Z,24.70
2019-04-06T03:52:12.265Z,26.07
2019-04-06T03:54:19.711Z,22.27
2019-04-06T03:56:27.150Z,23.20
2019-04-06T03:58:34.498Z,26.23
2019-04-06T04:00:41.905Z,26.37
2019-04-06T04:02:49.327Z,24.73
2019-04-06T04:04:56.701Z,23.37
2019-04-06T04:07:04.156Z,28.93
2019-04-06T04:09:11.740Z,24.13
2019-04-06T04:11:19.227Z,22.97
2019-04-06T04:13:26.595Z,21.10
2019-04-06T04:15:34.216Z,24.23
2019-04-06T04:17:41.686Z,22.57
2019-04-06T04:19:49.112Z,26.10
2019-04-06T04:21:57.430Z,28.63
2019-04-06T04:24:04.962Z,27.40
2019-04-06T04:26:12.460Z,26.43
2019-04-06T04:28:19.859Z,23.57
2019-04-06T04:30:32.892Z,23.30
2019-04-06T04:32:36.542Z,23.63
2019-04-06T04:34:44.045Z,26.80
2019-04-06T04:36:51.510Z,19.77
2019-04-06T04:38:58.909Z,27.10
2019-04-06T04:41:06.424Z,31.27
2019-04-06T04:43:13.842Z,23.33
2019-04-06T04:45:21.247Z,23.20
2019-04-06T04:47:28.871Z,28.33
2019-04-06T04:49:36.284Z,28.07
2019-04-06T04:51:43.818Z,26.77
2019-04-06T04:53:51.322Z,26.97
2019-04-06T04:55:58.863Z,23.43
2019-04-06T04:58:06.227Z,25.27
2019-04-06T05:00:14.643Z,23.10
2019-04-06T05:02:22.438Z,26.80
2019-04-06T05:04:29.977Z,22.67
2019-04-06T05:06:37.392Z,22.97
2019-04-06T05:08:44.797Z,28.63
2019-04-06T05:10:52.190Z,22.90
2019-04-06T05:12:59.616Z,24.97
2019-04-06T05:15:11.631Z,22.73
2019-04-06T05:17:19.000Z,25.93
2019-04-06T05:19:26.385Z,25.13
2019-04-06T05:21:33.763Z,21.93
2019-04-06T05:23:41.374Z,23.90
2019-04-06T05:25:48.758Z,27.03
2019-04-06T05:27:56.289Z,24.53
2019-04-06T05:30:03.744Z,25.50
2019-04-06T05:32:11.276Z,27.47
2019-04-06T05:34:18.672Z,27.93
2019-04-06T05:36:26.107Z,23.80
2019-04-06T05:38:33.456Z,33.80
2019-04-06T05:40:40.874Z,31.70
2019-04-06T05:42:48.373Z,35.97
2019-04-06T05:44:55.890Z,31.63
2019-04-06T05:47:03.286Z,30.80
2019-04-06T05:49:10.787Z,34.47
2019-04-06T05:51:18.178Z,30.70
2019-04-06T05:53:25.599Z,30.87
2019-04-06T05:55:33.136Z,25.63
2019-04-06T05:57:40.682Z,27.40
2019-04-06T05:59:48.162Z,22.87
2019-04-06T06:01:55.553Z,27.47
2019-04-06T06:04:02.971Z,41.73
2019-04-06T06:06:12.655Z,23.00
2019-04-06T06:08:19.921Z,29.23
2019-04-06T06:10:27.366Z,24.73
2019-04-06T06:12:34.873Z,25.23
2019-04-06T06:14:42.356Z,22.93
2019-04-06T06:16:50.160Z,22.50
2019-04-06T06:18:57.833Z,27.70
2019-04-06T06:21:05.488Z,28.73
2019-04-06T06:23:13.126Z,28.57
2019-04-06T06:25:20.665Z,25.77
2019-04-06T06:27:28.341Z,27.57
2019-04-06T06:29:35.872Z,27.63
2019-04-06T06:31:43.880Z,25.40
2019-04-06T06:33:51.348Z,24.80
2019-04-06T06:35:58.831Z,26.13
2019-04-06T06:38:06.536Z,26.57
2019-04-06T06:40:14.963Z,28.60
2019-04-06T06:42:22.352Z,31.00
2019-04-06T06:44:29.771Z,25.10
2019-04-06T06:46:37.349Z,22.80
2019-04-06T06:48:44.829Z,27.10
2019-04-06T06:50:52.235Z,22.17
2019-04-06T06:53:00.004Z,27.50
2019-04-06T06:55:08.035Z,27.43
2019-04-06T06:57:15.459Z,23.13
2019-04-06T06:59:23.111Z,24.17
2019-04-06T07:01:30.690Z,30.03
2019-04-06T07:03:38.244Z,22.70
2019-04-06T07:05:45.886Z,26.23
2019-04-06T07:07:53.300Z,25.17
2019-04-06T07:10:05.738Z,22.83
2019-04-06T07:12:09.942Z,31.20
2019-04-06T07:14:17.451Z,23.73
2019-04-06T07:16:24.974Z,28.90
2019-04-06T07:18:32.444Z,21.60
2019-04-06T07:20:39.969Z,21.43
2019-04-06T07:22:47.691Z,29.07
2019-04-06T07:24:55.293Z,25.23
2019-04-06T07:27:02.717Z,29.13
2019-04-06T07:29:11.225Z,26.73
2019-04-06T07:31:18.701Z,25.87
2019-04-06T07:33:26.155Z,25.27
2019-04-06T07:35:33.635Z,26.90
2019-04-06T07:37:41.055Z,27.97
2019-04-06T07:39:48.506Z,22.43
2019-04-06T07:41:55.897Z,26.17
2019-04-06T07:44:05.663Z,26.07
2019-04-06T07:46:12.990Z,30.17
2019-04-06T07:48:20.389Z,24.50
2019-04-06T07:50:27.916Z,23.07
2019-04-06T07:52:35.430Z,26.73
2019-04-06T07:54:42.945Z,23.67
2019-04-06T07:56:51.207Z,28.20
2019-04-06T07:58:58.760Z,29.27
2019-04-06T08:01:06.449Z,25.93
2019-04-06T08:03:13.920Z,21.63
2019-04-06T08:05:21.889Z,23.60
2019-04-06T08:07:29.294Z,25.37
2019-04-06T08:09:36.796Z,23.83
2019-04-06T08:11:45.120Z,20.43
2019-04-06T08:13:52.592Z,22.80
2019-04-06T08:16:00.077Z,22.80
2019-04-06T08:18:07.750Z,22.90
2019-04-06T08:20:15.491Z,21.30
2019-04-06T08:22:22.917Z,23.47
2019-04-06T08:24:30.473Z,29.17
2019-04-06T08:26:38.020Z,22.07
2019-04-06T08:28:45.470Z,26.90
2019-04-06T08:30:52.997Z,23.20
2019-04-06T08:33:00.846Z,20.13
2019-04-06T08:35:09.166Z,24.33
2019-04-06T08:37:17.065Z,18.83
2019-04-06T08:39:25.823Z,22.47
2019-04-06T08:41:33.532Z,22.30
2019-04-06T08:43:41.058Z,16.63
2019-04-06T08:45:48.802Z,23.07
2019-04-06T08:47:56.568Z,23.10
2019-04-06T08:50:04.788Z,20.13
2019-04-06T08:52:12.422Z,23.05
2019-04-06T08:54:20.099Z,20.10
2019-04-06T08:56:27.697Z,25.53
2019-04-06T08:58:35.191Z,28.20
2019-04-06T09:00:42.746Z,27.67
2019-04-06T09:02:50.248Z,23.17
2019-04-06T09:04:57.881Z,23.63
2019-04-06T09:07:05.410Z,22.33
2019-04-06T09:09:13.255Z,19.53
2019-04-06T09:11:20.879Z,18.30
2019-04-06T09:13:28.444Z,22.37
2019-04-06T09:15:36.120Z,20.37
2019-04-06T09:17:43.703Z,18.75
2019-04-06T09:19:51.305Z,18.23
2019-04-06T09:21:58.789Z,22.85
2019-04-06T09:24:06.411Z,18.67
2019-04-06T09:26:13.854Z,21.07
2019-04-06T09:28:21.533Z,17.70
2019-04-06T09:30:29.387Z,20.20
2019-04-06T09:32:37.034Z,22.32
2019-04-06T09:34:44.758Z,16.02
2019-04-06T09:36:52.248Z,21.62
2019-04-06T09:38:59.935Z,19.40
2019-04-06T09:41:07.453Z,20.08
2019-04-06T09:43:15.781Z,23.55
2019-04-06T09:45:43.284Z,17.52
2019-04-06T09:48:02.078Z,18.27
2019-04-06T09:50:25.668Z,22.90
2019-04-06T09:52:39.621Z,21.97
2019-04-06T09:54:55.498Z,21.30
2019-04-06T09:57:20.600Z,22.00
2019-04-06T09:59:47.952Z,20.70
2019-04-06T10:02:11.412Z,20.75
2019-04-06T10:04:36.434Z,18.60
2019-04-06T10:06:54.122Z,19.20
2019-04-06T10:09:13.059Z,19.02
2019-04-06T10:11:28.560Z,22.37
2019-04-06T10:13:53.741Z,18.35
2019-04-06T10:16:25.832Z,21.20
2019-04-06T10:18:52.246Z,17.00
2019-04-06T10:21:27.597Z,15.98
2019-04-06T10:23:52.611Z,16.48
2019-04-06T10:26:18.691Z,19.55
2019-04-06T10:28:36.099Z,17.73
2019-04-06T10:31:12.648Z,19.92
2019-04-06T10:33:27.706Z,17.75
2019-04-06T10:35:51.829Z,18.07
2019-04-06T10:38:24.083Z,19.37
2019-04-06T10:40:49.071Z,19.23
2019-04-06T10:43:17.605Z,16.27
2019-04-06T10:45:55.994Z,17.60
2019-04-06T10:48:28.030Z,19.98
2019-04-06T10:50:53.315Z,20.57
2019-04-06T10:53:25.518Z,16.05
2019-04-06T10:55:54.793Z,16.93
2019-04-06T10:58:27.057Z,18.82
2019-04-06T11:00:53.711Z,23.45
2019-04-06T11:03:19.938Z,16.70
2019-04-06T11:05:46.046Z,18.87
2019-04-06T11:08:08.456Z,19.25
2019-04-06T11:10:33.619Z,15.78
2019-04-06T11:13:12.392Z,19.17
2019-04-06T11:15:38.508Z,18.48
2019-04-06T11:18:04.629Z,21.27
2019-04-06T11:20:29.950Z,20.35
2019-04-06T11:22:55.190Z,13.70
2019-04-06T11:25:27.247Z,17.55
2019-04-06T11:27:53.310Z,19.65
2019-04-06T11:30:22.521Z,17.25
2019-04-06T11:32:45.486Z,19.23
2019-04-06T11:35:14.621Z,18.98
2019-04-06T11:37:32.721Z,20.00
2019-04-06T11:39:58.487Z,17.17
2019-04-06T11:42:37.000Z,20.75
2019-04-06T11:45:03.123Z,17.30
2019-04-06T11:47:25.675Z,16.95
2019-04-06T11:49:54.836Z,21.33
2019-04-06T11:52:13.772Z,23.07
2019-04-06T11:54:42.967Z,17.62
2019-04-06T11:57:04.769Z,15.65
2019-04-06T11:59:29.579Z,17.77
2019-04-06T12:01:47.327Z,18.02
2019-04-06T12:04:00.831Z,18.85
2019-04-06T12:06:25.827Z,17.60
2019-04-06T12:08:52.905Z,15.58
2019-04-06T12:11:21.992Z,21.57
2019-04-06T12:13:44.395Z,21.80
2019-04-06T12:16:15.630Z,21.40
2019-04-06T12:18:45.868Z,20.05
2019-04-06T12:21:15.067Z,21.62
2019-04-06T12:23:40.261Z,15.95
2019-04-06T12:25:56.963Z,21.93
2019-04-06T12:28:25.956Z,62.13
2019-04-06T12:31:01.583Z,115.20
2019-04-06T12:33:27.667Z,58.90
2019-04-06T12:35:53.797Z,74.58
2019-04-06T12:38:24.780Z,23.07
2019-04-06T12:40:49.967Z,32.88
2019-04-06T12:43:19.256Z,22.42
2019-04-06T12:45:54.780Z,22.73
2019-04-06T12:48:18.870Z,15.32
2019-04-06T12:50:51.478Z,13.05
2019-04-06T12:53:22.765Z,22.32
2019-04-06T12:55:48.889Z,21.07
2019-04-06T12:58:34.002Z,32.17
2019-04-06T13:00:59.355Z,24.67
2019-04-06T13:03:13.174Z,16.93
2019-04-06T13:05:36.272Z,27.85
2019-04-06T13:08:17.771Z,22.82
2019-04-06T13:10:30.373Z,18.05
2019-04-06T13:13:02.691Z,14.30
2019-04-06T13:15:38.343Z,19.60
2019-04-06T13:18:10.677Z,18.65
2019-04-06T13:20:43.290Z,17.87
2019-04-06T13:23:27.835Z,16.52
2019-04-06T13:25:46.242Z,80.40
2019-04-06T13:28:06.399Z,20.05
2019-04-06T13:30:33.038Z,60.92
2019-04-06T13:33:02.257Z,43.02
2019-04-06T13:35:25.902Z,25.97
2019-04-06T13:37:40.327Z,63.10
2019-04-06T13:40:15.884Z,36.05
2019-04-06T13:42:45.094Z,16.62
2019-04-06T13:45:02.079Z,26.73
2019-04-06T13:47:34.635Z,21.55
2019-04-06T13:49:50.364Z,35.60
2019-04-06T13:52:23.180Z,61.05
2019-04-06T13:54:48.696Z,63.48
2019-04-06T13:57:24.581Z,33.90
2019-04-06T13:59:57.227Z,61.18
2019-04-06T14:02:23.480Z,37.65
2019-04-06T14:04:40.993Z,26.90
2019-04-06T14:07:00.360Z,132.78
2019-04-06T14:09:28.300Z,56.40
2019-04-06T14:12:00.877Z,31.17
2019-04-06T14:14:26.075Z,27.50
2019-04-06T14:16:55.410Z,24.10
2019-04-06T14:19:14.641Z,36.13
2019-04-06T14:21:41.032Z,19.90
2019-04-06T14:24:10.189Z,32.75
2019-04-06T14:26:42.478Z,21.73
2019-04-06T14:29:10.133Z,38.88
2019-04-06T14:31:29.041Z,45.83
2019-04-06T14:33:54.175Z,27.90
2019-04-06T14:36:23.369Z,35.90
2019-04-06T14:38:52.507Z,17.98
2019-04-06T14:41:25.166Z,21.68
2019-04-06T14:43:51.349Z,30.43
2019-04-06T14:46:33.037Z,24.43
2019-04-06T14:49:22.554Z,23.20
2019-04-06T14:51:51.206Z,68.65
2019-04-06T14:54:08.922Z,19.32
2019-04-06T14:56:53.554Z,27.70
2019-04-06T14:59:18.573Z,23.10
2019-04-06T15:01:41.215Z,29.63
2019-04-06T15:03:55.015Z,29.67
2019-04-06T15:06:30.687Z,20.30
2019-04-06T15:09:01.023Z,18.70
2019-04-06T15:11:33.568Z,19.82
2019-04-06T15:13:48.838Z,25.37
2019-04-06T15:16:14.456Z,19.32
2019-04-06T15:18:50.101Z,19.15
2019-04-06T15:21:19.928Z,19.87
2019-04-06T15:23:41.028Z,46.88
2019-04-06T15:26:03.536Z,28.38
2019-04-06T15:28:28.838Z,31.97
2019-04-06T15:31:01.015Z,21.17
2019-04-06T15:33:26.605Z,31.07
2019-04-06T15:35:52.863Z,25.10
2019-04-06T15:38:34.333Z,19.52
2019-04-06T15:41:03.741Z,19.75
2019-04-06T15:43:37.608Z,18.70
2019-04-06T15:46:09.782Z,25.80
2019-04-06T15:48:45.419Z,22.60
2019-04-06T15:51:20.947Z,14.85
2019-04-06T15:53:34.342Z,18.55
2019-04-06T15:55:57.245Z,19.02
2019-04-06T15:58:26.519Z,18.62
2019-04-06T16:01:01.822Z,15.70
2019-04-06T16:03:19.445Z,16.65
2019-04-06T16:05:44.862Z,19.67
2019-04-06T16:08:26.249Z,18.35
2019-04-06T16:10:55.331Z,27.10
2019-04-06T16:13:21.948Z,20.05
2019-04-06T16:15:40.743Z,18.80
2019-04-06T16:18:22.261Z,21.07
2019-04-06T16:20:35.823Z,17.23
2019-04-06T16:23:04.987Z,16.50
2019-04-06T16:25:25.913Z,16.45
2019-04-06T16:27:52.954Z,16.85
2019-04-06T16:30:18.534Z,20.40
2019-04-06T16:33:00.323Z,24.92
2019-04-06T16:35:17.225Z,18.17
2019-04-06T16:37:52.819Z,17.10
2019-04-06T16:40:25.403Z,26.85
2019-04-06T16:43:01.167Z,29.27
2019-04-06T16:45:31.022Z,26.33
2019-04-06T16:47:56.507Z,24.02
2019-04-06T16:50:14.750Z,25.37
2019-04-06T16:52:42.410Z,26.75
2019-04-06T16:55:07.774Z,25.30
2019-04-06T16:57:30.286Z,28.67
2019-04-06T16:59:48.731Z,20.95
2019-04-06T17:02:25.539Z,43.35
2019-04-06T17:04:42.804Z,49.45
2019-04-06T17:07:03.426Z,49.75
2019-04-06T17:09:18.798Z,37.93
2019-04-06T17:12:00.481Z,34.83
2019-04-06T17:14:22.594Z,54.37
2019-04-06T17:16:48.026Z,55.83
2019-04-06T17:19:15.858Z,51.53
2019-04-06T17:21:32.145Z,64.27
2019-04-06T17:23:57.330Z,70.70
2019-04-06T17:26:30.008Z,60.20
2019-04-06T17:28:56.144Z,66.50
2019-04-06T17:31:37.617Z,67.63
2019-04-06T17:34:19.273Z,70.43
2019-04-06T17:36:49.175Z,77.90
2019-04-06T17:39:15.093Z,71.82
2019-04-06T17:41:38.729Z,57.87
2019-04-06T17:44:17.295Z,59.73
2019-04-06T17:46:42.531Z,64.73
2019-04-06T17:49:09.331Z,65.13
2019-04-06T17:51:47.786Z,62.23
2019-04-06T17:54:23.136Z,65.85
2019-04-06T17:56:58.623Z,56.43
2019-04-06T17:59:24.943Z,44.27
2019-04-06T18:02:03.464Z,40.27
2019-04-06T18:04:41.984Z,51.60
2019-04-06T18:07:23.974Z,35.17
2019-04-06T18:09:53.469Z,44.90
2019-04-06T18:12:20.838Z,41.95
2019-04-06T18:14:28.453Z,34.03
2019-04-06T18:16:37.617Z,34.17
2019-04-06T18:18:45.643Z,32.17
2019-04-06T18:20:53.248Z,55.97
2019-04-06T18:25:16.787Z,45.70
2019-04-06T18:27:24.284Z,43.90
2019-04-06T18:29:35.419Z,37.63
2019-04-06T18:31:52.750Z,38.93
2019-04-06T18:34:00.464Z,42.43
2019-04-06T18:36:08.631Z,67.83
2019-04-06T18:38:24.194Z,65.47
2019-04-06T18:40:31.804Z,71.70
2019-04-06T18:42:39.948Z,66.43
2019-04-06T18:44:47.554Z,69.87
2019-04-06T18:46:55.245Z,67.90
2019-04-06T18:49:03.253Z,56.30
2019-04-06T18:51:11.250Z,63.00
2019-04-06T18:53:19.367Z,60.77
2019-04-06T18:55:27.179Z,62.37
2019-04-06T18:57:34.740Z,60.57
2019-04-06T18:59:42.680Z,58.80
2019-04-06T19:01:50.795Z,56.80
2019-04-06T19:03:58.354Z,50.53
2019-04-06T19:06:06.113Z,46.83
2019-04-06T19:08:14.264Z,48.30
2019-04-06T19:10:22.047Z,42.37
2019-04-06T19:12:29.468Z,43.87
2019-04-06T19:14:37.224Z,41.73
2019-04-06T19:16:44.909Z,42.83
2019-04-06T19:18:53.154Z,42.77
2019-04-06T19:21:00.758Z,43.80
2019-04-06T19:23:08.426Z,43.40
2019-04-06T19:25:16.178Z,46.03
2019-04-06T19:27:23.818Z,42.77
2019-04-06T19:29:31.768Z,47.43
2019-04-06T19:31:39.375Z,45.47
2019-04-06T19:33:47.042Z,40.00
2019-04-06T19:35:55.106Z,40.87
2019-04-06T19:38:03.085Z,40.20
2019-04-06T19:40:11.720Z,37.20
2019-04-06T19:42:19.373Z,38.73
2019-04-06T19:44:27.205Z,36.67
2019-04-06T19:46:35.175Z,35.77
2019-04-06T19:48:43.665Z,35.37
2019-04-06T19:50:51.620Z,36.10
2019-04-06T19:53:00.090Z,33.33
2019-04-06T19:55:08.985Z,33.00
2019-04-06T19:57:16.613Z,32.03
2019-04-06T19:59:24.222Z,36.30
2019-04-06T20:01:32.021Z,39.60
2019-04-06T20:03:40.017Z,40.10
2019-04-06T20:05:47.570Z,41.10
2019-04-06T20:07:55.717Z,46.70
2019-04-06T20:10:03.558Z,45.43
2019-04-06T20:12:11.501Z,47.47
2019-04-06T20:14:19.083Z,57.37
2019-04-06T20:16:27.514Z,56.43
2019-04-06T20:18:35.058Z,48.43
2019-04-06T20:20:43.065Z,70.97
2019-04-06T20:22:50.615Z,74.63
2019-04-06T20:24:58.212Z,64.40
2019-04-06T20:27:05.930Z,58.77
2019-04-06T20:29:13.902Z,74.40
2019-04-06T20:31:21.572Z,101.67
2019-04-06T20:33:29.563Z,97.53
2019-04-06T20:35:37.292Z,111.70
2019-04-06T20:37:45.126Z,89.90
2019-04-06T20:39:52.755Z,61.17
2019-04-06T20:42:00.884Z,47.93
2019-04-06T20:44:09.153Z,42.23
2019-04-06T20:46:19.668Z,44.70
2019-04-06T20:48:25.953Z,43.90
2019-04-06T20:50:33.391Z,45.13
2019-04-06T20:52:40.990Z,39.53
2019-04-06T20:54:48.543Z,40.67
2019-04-06T20:56:58.069Z,39.97
2019-04-06T20:59:05.252Z,37.63
2019-04-06T21:01:13.032Z,44.33
2019-04-06T21:03:20.591Z,43.10
2019-04-06T21:05:28.159Z,48.40
2019-04-06T21:07:35.703Z,39.50
2019-04-06T21:09:46.034Z,43.67
2019-04-06T21:11:53.701Z,39.50
2019-04-06T21:14:01.174Z,43.03
2019-04-06T21:16:08.597Z,43.90
2019-04-06T21:18:16.560Z,44.60
2019-04-06T21:20:24.180Z,46.73
2019-04-06T21:22:31.698Z,49.77
2019-04-06T21:24:39.452Z,45.93
2019-04-06T21:26:47.131Z,50.33
2019-04-06T21:28:54.717Z,42.80
2019-04-06T21:31:02.320Z,46.47
2019-04-06T21:33:09.919Z,43.53
2019-04-06T21:35:17.992Z,44.07
2019-04-06T21:37:25.752Z,47.73
2019-04-06T21:39:33.438Z,47.00
2019-04-06T21:41:40.952Z,46.63
2019-04-06T21:43:49.426Z,43.50
2019-04-06T21:45:57.586Z,48.57
2019-04-06T21:48:05.837Z,46.00
2019-04-06T21:50:13.955Z,42.60
2019-04-06T21:52:21.435Z,45.77
2019-04-06T21:54:29.481Z,44.70
2019-04-06T21:56:37.470Z,49.80
2019-04-06T21:58:44.988Z,45.70
2019-04-06T22:00:55.369Z,48.43
2019-04-06T22:03:04.392Z,44.10
2019-04-06T22:05:12.365Z,53.13
2019-04-06T22:07:20.640Z,44.57
2019-04-06T22:09:28.777Z,48.13
2019-04-06T22:11:37.087Z,52.87
2019-04-06T22:13:45.210Z,51.07
2019-04-06T22:15:53.914Z,55.47
2019-04-06T22:18:01.369Z,49.30
2019-04-06T22:20:09.536Z,55.70
2019-04-06T22:22:17.145Z,49.67
2019-04-06T22:24:25.018Z,51.57
2019-04-06T22:26:32.837Z,52.43
2019-04-06T22:28:40.316Z,53.47
2019-04-06T22:30:47.760Z,60.13
2019-04-06T22:32:55.157Z,49.27
2019-04-06T22:35:02.650Z,48.03
2019-04-06T22:37:10.118Z,47.60
2019-04-06T22:39:17.744Z,48.73
2019-04-06T22:41:25.228Z,51.23
2019-04-06T22:43:32.820Z,53.60
2019-04-06T22:45:41.452Z,47.33
2019-04-06T22:47:49.493Z,50.33
2019-04-06T22:49:56.941Z,45.93
2019-04-06T22:52:04.380Z,44.27
2019-04-06T22:54:11.837Z,44.73
2019-04-06T22:56:19.272Z,50.73
2019-04-06T22:58:26.631Z,45.37
2019-04-06T23:00:50.261Z,44.57
2019-04-06T23:03:10.578Z,40.47
2019-04-06T23:05:26.886Z,48.43
2019-04-06T23:07:34.820Z,42.40
2019-04-06T23:09:42.872Z,42.20
2019-04-06T23:11:50.417Z,47.07
2019-04-06T23:13:57.842Z,47.63
2019-04-06T23:16:05.864Z,44.33
2019-04-06T23:18:13.945Z,45.00
2019-04-06T23:20:21.834Z,43.67
2019-04-06T23:22:29.525Z,48.07
2019-04-06T23:24:38.587Z,45.00
2019-04-06T23:26:46.561Z,44.27
2019-04-06T23:28:54.021Z,43.03
2019-04-06T23:31:01.686Z,47.43
2019-04-06T23:33:09.440Z,44.70
2019-04-06T23:35:16.903Z,42.53
2019-04-06T23:37:24.333Z,46.27
2019-04-06T23:39:32.107Z,42.30
2019-04-06T23:41:39.611Z,43.67
2019-04-06T23:43:47.082Z,44.23
2019-04-06T23:45:54.880Z,50.10
2019-04-06T23:48:03.044Z,42.97
2019-04-06T23:50:11.101Z,46.67
2019-04-06T23:52:19.512Z,48.03
2019-04-06T23:54:26.939Z,49.53
2019-04-06T23:56:35.059Z,45.73
2019-04-06T23:58:43.114Z,42.63
